Time;durP1;ratioP1;P1;durP2;ratioP2;P2;SDS_P1;SDS_P2;PMS_P1;PMS_P2;Temp;Humidity;BMP_temperature;BMP_pressure;BME280_temperature;BME280_humidity;BME280_pressure;Samples;Min_cycle;Max_cycle;Signal;HPM_P1;HPM_P2
2021/09/06 00:00:15;;;;;;;26.23;20.45;;;;;;;;;;2091557;28;20578;-53
2021/09/06 00:01:15;;;;;;;28.30;22.17;;;;;;;;;;2088657;28;20171;-54
2021/09/06 00:02:16;;;;;;;27.02;21.15;;;;;;;;;;2065805;28;20180;-55
2021/09/06 00:03:16;;;;;;;25.67;20.70;;;;;;;;;;2086705;28;20188;-55
2021/09/06 00:04:16;;;;;;;25.38;20.67;;;;;;;;;;2091079;28;20195;-55
2021/09/06 00:05:16;;;;;;;24.63;20.10;;;;;;;;;;2091323;28;20182;-55
2021/09/06 00:06:17;;;;;;;30.58;21.40;;;;;;;;;;2089861;28;20171;-55
2021/09/06 00:07:17;;;;;;;28.52;21.58;;;;;;;;;;2082205;28;20172;-55
2021/09/06 00:08:17;;;;;;;29.58;21.33;;;;;;;;;;2082054;28;20577;-57
2021/09/06 00:09:17;;;;;;;26.85;20.52;;;;;;;;;;2082962;28;20167;-55
2021/09/06 00:10:34;;;;;;;27.17;20.70;;;;;;;;;;2087301;28;20686;-54
2021/09/06 00:11:35;;;;;;;32.42;21.55;;;;;;;;;;2082173;28;20172;-56
2021/09/06 00:12:35;;;;;;;30.00;21.20;;;;;;;;;;2082143;28;20275;-51
2021/09/06 00:13:36;;;;;;;27.58;19.77;;;;;;;;;;2083364;28;20219;-55
2021/09/06 00:14:37;;;;;;;25.95;19.92;;;;;;;;;;2085776;28;20176;-56
2021/09/06 00:15:38;;;;;;;26.92;21.10;;;;;;;;;;2091181;28;20656;-55
2021/09/06 00:16:38;;;;;;;28.08;19.40;;;;;;;;;;2086235;28;20168;-56
2021/09/06 00:17:38;;;;;;;25.98;19.42;;;;;;;;;;2090560;28;20171;-56
2021/09/06 00:18:39;;;;;;;31.25;20.52;;;;;;;;;;2090327;28;20197;-55
2021/09/06 00:19:39;;;;;;;27.65;19.92;;;;;;;;;;2090866;28;20184;-55
2021/09/06 00:20:41;;;;;;;30.88;20.90;;;;;;;;;;2089992;28;20300;-54
2021/09/06 00:21:41;;;;;;;31.60;21.52;;;;;;;;;;2085586;28;20283;-54
2021/09/06 00:22:42;;;;;;;30.35;21.42;;;;;;;;;;2089712;28;20175;-51
2021/09/06 00:23:42;;;;;;;32.58;21.67;;;;;;;;;;2089017;28;20172;-53
2021/09/06 00:24:42;;;;;;;32.50;22.85;;;;;;;;;;2090360;28;20179;-54
2021/09/06 00:25:42;;;;;;;32.42;22.23;;;;;;;;;;2091103;28;20164;-52
2021/09/06 00:26:43;;;;;;;33.25;22.33;;;;;;;;;;2085879;28;20711;-54
2021/09/06 00:27:43;;;;;;;34.08;21.17;;;;;;;;;;2078723;28;20201;-55
2021/09/06 00:28:43;;;;;;;32.03;22.75;;;;;;;;;;2082352;28;20176;-54
2021/09/06 00:29:44;;;;;;;31.02;23.00;;;;;;;;;;2074600;28;20240;-53
2021/09/06 00:30:44;;;;;;;34.97;23.08;;;;;;;;;;2083168;28;20179;-55
2021/09/06 00:31:44;;;;;;;33.35;23.65;;;;;;;;;;2084122;28;20184;-55
2021/09/06 00:32:45;;;;;;;34.28;23.55;;;;;;;;;;2072790;28;20402;-55
2021/09/06 00:33:45;;;;;;;34.20;22.88;;;;;;;;;;2081071;28;20176;-55
2021/09/06 00:34:45;;;;;;;31.65;21.67;;;;;;;;;;2072821;28;20173;-52
2021/09/06 00:35:46;;;;;;;37.88;23.13;;;;;;;;;;2081491;28;20177;-56
2021/09/06 00:36:46;;;;;;;30.45;22.45;;;;;;;;;;2073215;28;20292;-55
2021/09/06 00:37:48;;;;;;;32.50;23.17;;;;;;;;;;2065341;28;20252;-55
2021/09/06 00:38:48;;;;;;;34.78;22.38;;;;;;;;;;2080824;28;20710;-56
2021/09/06 00:39:48;;;;;;;29.42;22.48;;;;;;;;;;2073724;28;20216;-55
2021/09/06 00:40:49;;;;;;;32.95;22.88;;;;;;;;;;2073834;28;20176;-52
2021/09/06 00:41:49;;;;;;;31.25;22.98;;;;;;;;;;2072795;28;20189;-54
2021/09/06 00:42:51;;;;;;;37.72;24.35;;;;;;;;;;2076031;28;20250;-56
2021/09/06 00:43:52;;;;;;;34.30;23.40;;;;;;;;;;2090266;28;20710;-52
2021/09/06 00:44:52;;;;;;;33.65;22.77;;;;;;;;;;2086382;28;20190;-54
2021/09/06 00:45:53;;;;;;;33.15;24.25;;;;;;;;;;2089836;28;20217;-57
2021/09/06 00:46:55;;;;;;;31.83;23.17;;;;;;;;;;2082745;28;20184;-55
2021/09/06 00:47:55;;;;;;;33.70;23.35;;;;;;;;;;2081687;28;20243;-55
2021/09/06 00:48:56;;;;;;;29.65;22.02;;;;;;;;;;2090325;28;20207;-54
2021/09/06 00:49:57;;;;;;;31.75;22.38;;;;;;;;;;2090106;28;20191;-52
2021/09/06 00:50:57;;;;;;;29.90;20.98;;;;;;;;;;2090406;28;20637;-54
2021/09/06 00:51:57;;;;;;;33.70;21.85;;;;;;;;;;2075993;28;20177;-53
2021/09/06 00:52:58;;;;;;;31.45;22.10;;;;;;;;;;2076759;28;20164;-54
2021/09/06 00:53:58;;;;;;;32.63;22.83;;;;;;;;;;2081806;28;20180;-54
2021/09/06 00:55:00;;;;;;;33.08;21.48;;;;;;;;;;2081569;28;20223;-54
2021/09/06 00:56:02;;;;;;;33.90;24.00;;;;;;;;;;2090411;28;20175;-54
2021/09/06 00:57:03;;;;;;;33.30;22.20;;;;;;;;;;2087280;28;20648;-56
2021/09/06 00:58:04;;;;;;;31.42;22.88;;;;;;;;;;2082360;28;20172;-56
2021/09/06 00:59:05;;;;;;;30.67;22.23;;;;;;;;;;2083046;28;20708;-57
2021/09/06 01:00:07;;;;;;;31.30;21.42;;;;;;;;;;2082611;28;20200;-56
2021/09/06 01:01:08;;;;;;;28.17;21.70;;;;;;;;;;2082388;28;20258;-55
2021/09/06 01:02:09;;;;;;;31.08;22.15;;;;;;;;;;2086282;28;20179;-56
2021/09/06 01:03:10;;;;;;;31.80;21.63;;;;;;;;;;2088452;28;20164;-56
2021/09/06 01:04:12;;;;;;;34.22;22.25;;;;;;;;;;2083475;28;20168;-54
2021/09/06 01:05:31;;;;;;;30.92;21.92;;;;;;;;;;2091760;28;20617;-57
2021/09/06 01:06:50;;;;;;;32.65;21.42;;;;;;;;;;2085326;28;20195;-56
2021/09/06 01:08:10;;;;;;;30.15;21.90;;;;;;;;;;2083518;28;20239;-57
2021/09/06 01:09:39;;;;;;;32.67;22.45;;;;;;;;;;2058121;28;20198;-55
2021/09/06 01:10:54;;;;;;;30.33;20.85;;;;;;;;;;2052801;28;20543;-53
2021/09/06 01:12:11;;;;;;;30.60;21.30;;;;;;;;;;2076026;28;20227;-56
2021/09/06 01:13:19;;;;;;;28.77;20.90;;;;;;;;;;2081920;28;20176;-54
2021/09/06 01:14:19;;;;;;;29.70;21.00;;;;;;;;;;2090582;28;20254;-56
2021/09/06 01:15:20;;;;;;;28.40;21.17;;;;;;;;;;2091649;28;20676;-56
2021/09/06 01:16:22;;;;;;;34.15;22.45;;;;;;;;;;2091429;28;20167;-56
2021/09/06 01:17:22;;;;;;;30.27;21.10;;;;;;;;;;2083989;28;20285;-55
2021/09/06 01:18:25;;;;;;;30.13;21.60;;;;;;;;;;2069843;28;20169;-56
2021/09/06 01:19:26;;;;;;;30.38;21.98;;;;;;;;;;2067628;28;20205;-57
2021/09/06 01:20:30;;;;;;;33.30;22.45;;;;;;;;;;2068165;28;20227;-56
2021/09/06 01:21:32;;;;;;;32.00;22.05;;;;;;;;;;2071347;28;20189;-55
2021/09/06 01:22:55;;;;;;;29.85;21.63;;;;;;;;;;2086310;28;20183;-55
2021/09/06 01:24:05;;;;;;;30.60;21.40;;;;;;;;;;2087653;28;20176;-57
2021/09/06 01:25:08;;;;;;;29.52;22.20;;;;;;;;;;2075897;28;20225;-57
2021/09/06 01:26:09;;;;;;;34.10;22.77;;;;;;;;;;2084496;28;20184;-55
2021/09/06 01:27:09;;;;;;;30.20;22.05;;;;;;;;;;2074489;28;20168;-54
2021/09/06 01:28:09;;;;;;;31.17;22.88;;;;;;;;;;2076508;28;20188;-57
2021/09/06 01:29:10;;;;;;;33.90;23.80;;;;;;;;;;2082284;28;20218;-56
2021/09/06 01:30:12;;;;;;;31.63;22.63;;;;;;;;;;2071874;28;20193;-55
2021/09/06 01:31:12;;;;;;;32.63;23.40;;;;;;;;;;2082784;28;20172;-55
2021/09/06 01:32:17;;;;;;;29.73;21.58;;;;;;;;;;2090144;28;20202;-56
2021/09/06 01:33:20;;;;;;;32.88;22.55;;;;;;;;;;2089681;28;20164;-54
2021/09/06 01:34:21;;;;;;;27.20;22.55;;;;;;;;;;2082859;28;20172;-57
2021/09/06 01:35:26;;;;;;;29.75;22.00;;;;;;;;;;2083068;28;20180;-56
2021/09/06 01:36:28;;;;;;;32.17;21.98;;;;;;;;;;2087695;28;20179;-56
2021/09/06 01:37:32;;;;;;;34.17;23.05;;;;;;;;;;2081887;28;20207;-56
2021/09/06 01:38:34;;;;;;;38.22;25.67;;;;;;;;;;2089948;28;20232;-54
2021/09/06 01:39:36;;;;;;;38.25;24.23;;;;;;;;;;2080459;28;20196;-55
2021/09/06 01:40:39;;;;;;;32.25;23.15;;;;;;;;;;2076728;23;21068;-49
2021/09/06 01:41:44;;;;;;;35.60;24.40;;;;;;;;;;2091547;28;20187;-49
2021/09/06 01:42:48;;;;;;;36.00;24.52;;;;;;;;;;2084008;28;20225;-48
2021/09/06 01:43:51;;;;;;;37.35;25.38;;;;;;;;;;2081825;28;20205;-51
2021/09/06 01:44:56;;;;;;;40.03;27.10;;;;;;;;;;2086984;28;20180;-48
2021/09/06 01:46:02;;;;;;;39.42;25.60;;;;;;;;;;2081184;28;20203;-51
2021/09/06 01:47:05;;;;;;;38.80;25.05;;;;;;;;;;2068544;28;20228;-50
2021/09/06 01:48:09;;;;;;;44.05;25.20;;;;;;;;;;2083609;28;20211;-51
2021/09/06 01:49:17;;;;;;;34.72;24.38;;;;;;;;;;2089489;28;20186;-47
2021/09/06 01:50:19;;;;;;;36.75;23.10;;;;;;;;;;2087566;28;20176;-46
2021/09/06 01:51:27;;;;;;;32.15;21.50;;;;;;;;;;2073022;28;20177;-47
2021/09/06 01:52:28;;;;;;;30.40;22.27;;;;;;;;;;2075594;28;20183;-47
2021/09/06 01:53:32;;;;;;;31.85;22.40;;;;;;;;;;2072596;28;20184;-50
2021/09/06 01:54:35;;;;;;;34.72;23.27;;;;;;;;;;2072580;28;20741;-48
2021/09/06 01:55:37;;;;;;;34.30;22.92;;;;;;;;;;2073705;28;20173;-47
2021/09/06 01:56:44;;;;;;;29.10;21.30;;;;;;;;;;2064388;28;20170;-49
2021/09/06 01:57:47;;;;;;;32.78;22.40;;;;;;;;;;2059012;28;20186;-51
2021/09/06 01:58:51;;;;;;;31.52;23.48;;;;;;;;;;2075960;28;20184;-51
2021/09/06 01:59:52;;;;;;;29.55;21.15;;;;;;;;;;2080876;28;20192;-48
2021/09/06 02:00:56;;;;;;;31.77;23.35;;;;;;;;;;2079092;28;20192;-50
2021/09/06 02:02:05;;;;;;;33.42;23.52;;;;;;;;;;2066078;28;20749;-50
2021/09/06 02:03:12;;;;;;;32.40;22.75;;;;;;;;;;2071114;28;20251;-52
2021/09/06 02:04:18;;;;;;;30.60;22.05;;;;;;;;;;2080237;28;20247;-48
2021/09/06 02:05:20;;;;;;;34.72;23.13;;;;;;;;;;2081298;28;20652;-50
2021/09/06 02:06:24;;;;;;;35.05;22.75;;;;;;;;;;2074449;28;20275;-53
2021/09/06 02:07:34;;;;;;;33.45;22.63;;;;;;;;;;2072832;28;20176;-47
2021/09/06 02:08:35;;;;;;;29.85;21.00;;;;;;;;;;2085981;28;20183;-53
2021/09/06 02:09:35;;;;;;;33.67;23.77;;;;;;;;;;2080604;28;20265;-52
2021/09/06 02:10:39;;;;;;;32.30;23.38;;;;;;;;;;2082394;28;20193;-47
2021/09/06 02:11:45;;;;;;;32.03;23.23;;;;;;;;;;2075085;28;20650;-49
2021/09/06 02:12:46;;;;;;;33.30;23.02;;;;;;;;;;2078434;28;20771;-49
2021/09/06 02:13:51;;;;;;;33.65;24.05;;;;;;;;;;2072727;28;20687;-46
2021/09/06 02:14:53;;;;;;;45.22;27.30;;;;;;;;;;2074738;28;20173;-49
2021/09/06 02:15:55;;;;;;;37.90;25.58;;;;;;;;;;2080263;28;20165;-53
2021/09/06 02:16:59;;;;;;;39.92;26.15;;;;;;;;;;2079118;28;20177;-47
2021/09/06 02:18:07;;;;;;;37.58;25.25;;;;;;;;;;2081200;28;20199;-51
2021/09/06 02:19:09;;;;;;;37.30;23.90;;;;;;;;;;2066385;28;20181;-49
2021/09/06 02:20:15;;;;;;;36.80;22.83;;;;;;;;;;2071309;28;20180;-47
2021/09/06 02:21:16;;;;;;;37.40;24.98;;;;;;;;;;2071692;28;20688;-47
2021/09/06 02:22:19;;;;;;;33.25;22.95;;;;;;;;;;2072439;28;20183;-47
2021/09/06 02:23:29;;;;;;;38.60;24.20;;;;;;;;;;2073893;28;20261;-47
2021/09/06 02:24:31;;;;;;;34.72;23.40;;;;;;;;;;2088393;28;20262;-47
2021/09/06 02:25:36;;;;;;;36.10;24.15;;;;;;;;;;2080787;28;20254;-50
2021/09/06 02:26:38;;;;;;;35.70;24.52;;;;;;;;;;2079776;28;20263;-51
2021/09/06 02:27:42;;;;;;;35.13;23.95;;;;;;;;;;2066599;28;20181;-48
2021/09/06 02:28:49;;;;;;;37.25;24.17;;;;;;;;;;2075276;28;20276;-49
2021/09/06 02:29:51;;;;;;;37.97;24.75;;;;;;;;;;2087914;28;20210;-47
2021/09/06 02:30:55;;;;;;;34.13;23.95;;;;;;;;;;2088588;28;20774;-45
2021/09/06 02:32:08;;;;;;;36.67;22.92;;;;;;;;;;2074742;28;20166;-46
2021/09/06 02:33:29;;;;;;;37.47;22.33;;;;;;;;;;2086507;28;20715;-49
2021/09/06 02:34:49;;;;;;;35.35;24.25;;;;;;;;;;2088774;28;20187;-46
2021/09/06 02:35:49;;;;;;;32.80;22.38;;;;;;;;;;2089601;28;20160;-51
2021/09/06 02:36:49;;;;;;;31.27;22.45;;;;;;;;;;2085160;28;20341;-47
2021/09/06 02:37:50;;;;;;;34.28;23.30;;;;;;;;;;2072503;28;20183;-48
2021/09/06 02:38:50;;;;;;;29.77;22.25;;;;;;;;;;2073063;28;20195;-47
2021/09/06 02:39:51;;;;;;;33.05;22.98;;;;;;;;;;2083356;28;20213;-51
2021/09/06 02:40:51;;;;;;;37.28;23.98;;;;;;;;;;2089049;28;20242;-45
2021/09/06 02:41:58;;;;;;;37.70;23.00;;;;;;;;;;2072777;28;20181;-47
2021/09/06 02:42:59;;;;;;;34.40;22.92;;;;;;;;;;2082284;28;20199;-48
2021/09/06 02:44:00;;;;;;;28.48;21.92;;;;;;;;;;2095980;28;20183;-46
2021/09/06 02:45:01;;;;;;;34.10;23.58;;;;;;;;;;2096952;28;20175;-46
2021/09/06 02:46:01;;;;;;;34.47;24.42;;;;;;;;;;2086645;28;20194;-46
2021/09/06 02:47:02;;;;;;;28.08;21.40;;;;;;;;;;2073137;28;20193;-46
2021/09/06 02:48:03;;;;;;;32.83;22.85;;;;;;;;;;2076407;28;20200;-47
2021/09/06 02:49:04;;;;;;;32.25;22.45;;;;;;;;;;2084151;28;20179;-46
2021/09/06 02:50:04;;;;;;;30.80;21.40;;;;;;;;;;2084942;28;20257;-49
2021/09/06 02:51:06;;;;;;;28.80;21.05;;;;;;;;;;2077722;28;20669;-47
2021/09/06 02:52:06;;;;;;;35.13;22.02;;;;;;;;;;2084547;28;20183;-47
2021/09/06 02:53:07;;;;;;;32.08;20.40;;;;;;;;;;2097074;28;20159;-48
2021/09/06 02:54:07;;;;;;;29.05;20.13;;;;;;;;;;2093068;28;20265;-47
2021/09/06 02:55:09;;;;;;;31.77;22.33;;;;;;;;;;2089239;28;20171;-49
2021/09/06 02:56:14;;;;;;;27.80;19.92;;;;;;;;;;2089172;28;20181;-50
2021/09/06 02:57:17;;;;;;;30.05;20.42;;;;;;;;;;2091606;28;20180;-50
2021/09/06 02:58:19;;;;;;;35.65;21.90;;;;;;;;;;2071523;28;20248;-46
2021/09/06 02:59:23;;;;;;;26.13;19.90;;;;;;;;;;2066113;28;20321;-49
2021/09/06 03:00:25;;;;;;;28.40;21.00;;;;;;;;;;2081998;28;20303;-46
2021/09/06 03:01:26;;;;;;;29.40;20.42;;;;;;;;;;2078050;28;20265;-50
2021/09/06 03:02:28;;;;;;;27.75;19.40;;;;;;;;;;2079479;28;20191;-49
2021/09/06 03:03:28;;;;;;;24.73;19.15;;;;;;;;;;2089308;28;20697;-48
2021/09/06 03:04:29;;;;;;;25.83;18.77;;;;;;;;;;2096982;28;20175;-50
2021/09/06 03:05:31;;;;;;;28.80;18.95;;;;;;;;;;2088428;28;20207;-46
2021/09/06 03:06:32;;;;;;;28.23;19.40;;;;;;;;;;2082246;28;20648;-46
2021/09/06 03:07:32;;;;;;;27.80;19.75;;;;;;;;;;2067164;28;20170;-48
2021/09/06 03:08:33;;;;;;;29.73;20.25;;;;;;;;;;2087927;28;20849;-48
2021/09/06 03:09:33;;;;;;;24.08;18.50;;;;;;;;;;2084340;28;20243;-48
2021/09/06 03:10:34;;;;;;;24.85;18.77;;;;;;;;;;2088484;28;20215;-47
2021/09/06 03:11:34;;;;;;;27.95;19.25;;;;;;;;;;2085422;28;20168;-46
2021/09/06 03:12:35;;;;;;;24.33;17.67;;;;;;;;;;2080550;28;20179;-50
2021/09/06 03:13:35;;;;;;;26.92;18.63;;;;;;;;;;2088434;28;20196;-50
2021/09/06 03:14:35;;;;;;;23.10;17.33;;;;;;;;;;2091849;28;20182;-49
2021/09/06 03:15:36;;;;;;;24.67;18.55;;;;;;;;;;2096526;28;20175;-50
2021/09/06 03:16:36;;;;;;;24.08;17.70;;;;;;;;;;2083737;28;20176;-51
2021/09/06 03:17:36;;;;;;;26.02;18.13;;;;;;;;;;2088323;28;20244;-49
2021/09/06 03:18:36;;;;;;;25.33;19.65;;;;;;;;;;2073618;28;20234;-50
2021/09/06 03:19:54;;;;;;;25.20;18.38;;;;;;;;;;2072307;28;20169;-50
2021/09/06 03:20:55;;;;;;;27.30;19.10;;;;;;;;;;2079883;28;20191;-51
2021/09/06 03:21:55;;;;;;;31.27;19.50;;;;;;;;;;2080284;28;20675;-47
2021/09/06 03:22:57;;;;;;;27.38;19.75;;;;;;;;;;2076242;28;20223;-49
2021/09/06 03:23:57;;;;;;;29.90;21.73;;;;;;;;;;2077870;28;20681;-46
2021/09/06 03:25:01;;;;;;;30.13;22.75;;;;;;;;;;2092533;28;20647;-49
2021/09/06 03:26:04;;;;;;;30.52;21.55;;;;;;;;;;2085618;28;20189;-51
2021/09/06 03:27:07;;;;;;;27.83;21.00;;;;;;;;;;2076781;28;20172;-48
2021/09/06 03:28:11;;;;;;;33.47;22.58;;;;;;;;;;2075616;28;20621;-51
2021/09/06 03:29:16;;;;;;;27.60;21.05;;;;;;;;;;2071456;28;20227;-47
2021/09/06 03:30:16;;;;;;;25.95;20.67;;;;;;;;;;2072854;28;20240;-47
2021/09/06 03:31:17;;;;;;;26.38;19.30;;;;;;;;;;2083202;28;20190;-47
2021/09/06 03:32:17;;;;;;;24.85;18.70;;;;;;;;;;2080207;28;20222;-47
2021/09/06 03:33:18;;;;;;;25.27;18.48;;;;;;;;;;2078341;28;20347;-51
2021/09/06 03:34:22;;;;;;;30.33;19.08;;;;;;;;;;2071931;28;20568;-49
2021/09/06 03:35:24;;;;;;;22.38;18.55;;;;;;;;;;2071294;28;20181;-54
2021/09/06 03:36:24;;;;;;;23.85;18.35;;;;;;;;;;2071109;28;20641;-48
2021/09/06 03:37:25;;;;;;;25.45;17.65;;;;;;;;;;2080017;28;20191;-48
2021/09/06 03:38:25;;;;;;;23.65;18.80;;;;;;;;;;2086672;28;20215;-49
2021/09/06 03:39:26;;;;;;;23.65;18.25;;;;;;;;;;2087543;28;20537;-50
2021/09/06 03:40:26;;;;;;;26.13;18.55;;;;;;;;;;2079136;28;20192;-49
2021/09/06 03:41:26;;;;;;;25.13;18.33;;;;;;;;;;2085289;28;20269;-45
2021/09/06 03:42:27;;;;;;;24.40;18.05;;;;;;;;;;2087687;28;20225;-53
2021/09/06 03:43:27;;;;;;;26.27;19.00;;;;;;;;;;2080049;28;20172;-49
2021/09/06 03:44:27;;;;;;;25.75;18.33;;;;;;;;;;2080211;28;20198;-53
2021/09/06 03:45:28;;;;;;;28.27;18.05;;;;;;;;;;2083419;28;20269;-53
2021/09/06 03:46:30;;;;;;;25.48;17.95;;;;;;;;;;2071560;28;20633;-52
2021/09/06 03:47:32;;;;;;;24.95;18.92;;;;;;;;;;2070006;28;20685;-47
2021/09/06 03:48:35;;;;;;;25.13;19.23;;;;;;;;;;2079322;28;20274;-49
2021/09/06 03:49:39;;;;;;;27.67;19.38;;;;;;;;;;2080037;28;20731;-49
2021/09/06 03:50:41;;;;;;;25.58;19.27;;;;;;;;;;2073335;28;20197;-49
2021/09/06 03:51:44;;;;;;;23.48;17.63;;;;;;;;;;2073453;28;20181;-49
2021/09/06 03:52:48;;;;;;;25.45;18.88;;;;;;;;;;2072096;28;20177;-48
2021/09/06 03:53:52;;;;;;;24.27;17.90;;;;;;;;;;2077645;28;20667;-49
2021/09/06 03:54:55;;;;;;;26.40;18.08;;;;;;;;;;2080090;28;20872;-50
2021/09/06 03:55:59;;;;;;;22.52;17.38;;;;;;;;;;2076543;28;20172;-50
2021/09/06 03:57:04;;;;;;;23.83;18.38;;;;;;;;;;2072507;28;20633;-50
2021/09/06 03:58:07;;;;;;;22.42;17.23;;;;;;;;;;2083117;28;20601;-50
2021/09/06 03:59:11;;;;;;;23.77;16.88;;;;;;;;;;2072774;28;20264;-48
2021/09/06 04:00:15;;;;;;;28.52;17.83;;;;;;;;;;2077755;28;20168;-48
2021/09/06 04:01:20;;;;;;;23.95;17.67;;;;;;;;;;2086406;28;20254;-48
2021/09/06 04:02:22;;;;;;;21.50;16.95;;;;;;;;;;2085090;28;20176;-49
2021/09/06 04:03:25;;;;;;;24.67;18.20;;;;;;;;;;2094972;28;20254;-49
2021/09/06 04:04:26;;;;;;;24.90;19.15;;;;;;;;;;2083674;28;20176;-55
2021/09/06 04:05:27;;;;;;;23.83;17.92;;;;;;;;;;2079373;28;20702;-51
2021/09/06 04:06:30;;;;;;;24.00;18.25;;;;;;;;;;2077285;28;20634;-53
2021/09/06 04:07:30;;;;;;;23.48;17.55;;;;;;;;;;2072468;28;20215;-53
2021/09/06 04:08:33;;;;;;;22.15;17.35;;;;;;;;;;2080196;28;20169;-50
2021/09/06 04:09:34;;;;;;;23.00;17.70;;;;;;;;;;2080109;28;20251;-51
2021/09/06 04:10:34;;;;;;;23.95;18.20;;;;;;;;;;2072563;28;20212;-52
2021/09/06 04:11:35;;;;;;;22.40;16.60;;;;;;;;;;2072111;28;20660;-50
2021/09/06 04:12:35;;;;;;;21.35;16.65;;;;;;;;;;2072324;28;20533;-50
2021/09/06 04:13:36;;;;;;;22.33;16.60;;;;;;;;;;2063809;28;20173;-49
2021/09/06 04:14:37;;;;;;;22.73;15.90;;;;;;;;;;2065024;28;20209;-48
2021/09/06 04:15:38;;;;;;;20.63;15.60;;;;;;;;;;2087201;28;20570;-48
2021/09/06 04:16:39;;;;;;;20.85;16.30;;;;;;;;;;2090350;28;20176;-55
2021/09/06 04:17:39;;;;;;;23.23;16.48;;;;;;;;;;2087543;28;20187;-51
2021/09/06 04:18:41;;;;;;;22.30;17.40;;;;;;;;;;2067760;28;20264;-48
2021/09/06 04:19:42;;;;;;;23.33;16.95;;;;;;;;;;2059329;28;20178;-48
2021/09/06 04:20:42;;;;;;;21.90;17.13;;;;;;;;;;2086188;28;20234;-50
2021/09/06 04:21:43;;;;;;;27.23;18.88;;;;;;;;;;2078983;28;20308;-48
2021/09/06 04:22:44;;;;;;;25.05;18.45;;;;;;;;;;2073109;28;20751;-48
2021/09/06 04:23:44;;;;;;;26.00;18.50;;;;;;;;;;2080424;28;20648;-48
2021/09/06 04:24:45;;;;;;;26.25;17.38;;;;;;;;;;2097155;28;20171;-50
2021/09/06 04:25:45;;;;;;;26.02;19.35;;;;;;;;;;2094521;28;20219;-54
2021/09/06 04:26:46;;;;;;;24.40;17.70;;;;;;;;;;2081880;28;20200;-51
2021/09/06 04:27:46;;;;;;;24.90;18.95;;;;;;;;;;2089842;28;20183;-53
2021/09/06 04:28:51;;;;;;;28.60;17.90;;;;;;;;;;2073550;28;20235;-54
2021/09/06 04:29:51;;;;;;;27.17;17.67;;;;;;;;;;2082967;28;20192;-51
2021/09/06 04:30:52;;;;;;;24.55;18.15;;;;;;;;;;2093409;28;20203;-49
2021/09/06 04:32:02;;;;;;;24.15;17.25;;;;;;;;;;2084599;28;20670;-48
2021/09/06 04:33:02;;;;;;;24.60;17.77;;;;;;;;;;2080098;28;20255;-50
2021/09/06 04:34:03;;;;;;;25.42;18.27;;;;;;;;;;2073517;28;20181;-46
2021/09/06 04:35:05;;;;;;;27.65;19.10;;;;;;;;;;2073289;28;20177;-47
2021/09/06 04:36:07;;;;;;;27.33;19.17;;;;;;;;;;2077356;28;20171;-49
2021/09/06 04:37:16;;;;;;;25.58;19.10;;;;;;;;;;2072682;28;20175;-49
2021/09/06 04:38:19;;;;;;;27.10;18.83;;;;;;;;;;2069475;28;20256;-52
2021/09/06 04:39:19;;;;;;;31.30;20.58;;;;;;;;;;2079760;28;20214;-52
2021/09/06 04:40:21;;;;;;;27.48;20.02;;;;;;;;;;2089817;28;20524;-49
2021/09/06 04:41:25;;;;;;;32.10;20.50;;;;;;;;;;2097167;28;20171;-55
2021/09/06 04:42:27;;;;;;;38.58;23.67;;;;;;;;;;2081914;28;20160;-51
2021/09/06 04:43:31;;;;;;;32.80;21.80;;;;;;;;;;2067060;28;20182;-51
2021/09/06 04:44:37;;;;;;;35.47;23.67;;;;;;;;;;2082698;28;20176;-52
2021/09/06 04:45:40;;;;;;;37.05;23.42;;;;;;;;;;2082868;28;20180;-49
2021/09/06 04:46:43;;;;;;;36.63;24.65;;;;;;;;;;2073598;28;20177;-51
2021/09/06 04:47:43;;;;;;;35.83;23.65;;;;;;;;;;2081597;28;20180;-52
2021/09/06 04:48:44;;;;;;;42.08;26.90;;;;;;;;;;2068705;28;20185;-49
2021/09/06 04:49:45;;;;;;;40.22;25.30;;;;;;;;;;2073808;28;20184;-50
2021/09/06 04:50:45;;;;;;;43.25;25.50;;;;;;;;;;2081745;28;20192;-50
2021/09/06 04:51:46;;;;;;;47.03;27.48;;;;;;;;;;2064749;28;20181;-48
2021/09/06 04:52:49;;;;;;;50.20;29.20;;;;;;;;;;2070611;28;20181;-52
2021/09/06 04:53:50;;;;;;;53.97;29.02;;;;;;;;;;2071086;28;21098;-51
2021/09/06 04:54:53;;;;;;;56.15;29.23;;;;;;;;;;2069011;28;20168;-50
2021/09/06 04:55:54;;;;;;;49.72;27.38;;;;;;;;;;2080039;28;20615;-49
2021/09/06 04:56:54;;;;;;;44.97;27.30;;;;;;;;;;2076815;28;20168;-47
2021/09/06 04:57:54;;;;;;;45.67;26.88;;;;;;;;;;2073092;28;20208;-47
2021/09/06 04:58:55;;;;;;;45.58;25.83;;;;;;;;;;2072426;28;20677;-48
2021/09/06 04:59:57;;;;;;;44.13;25.88;;;;;;;;;;2069312;28;20180;-47
2021/09/06 05:00:57;;;;;;;47.47;27.40;;;;;;;;;;2080138;28;20266;-51
2021/09/06 05:01:57;;;;;;;43.83;26.00;;;;;;;;;;2080876;28;20283;-50
2021/09/06 05:02:58;;;;;;;44.90;27.02;;;;;;;;;;2076471;28;20179;-48
2021/09/06 05:03:58;;;;;;;42.25;25.45;;;;;;;;;;2085101;28;20219;-46
2021/09/06 05:04:59;;;;;;;39.22;24.60;;;;;;;;;;2094479;28;20194;-49
2021/09/06 05:06:00;;;;;;;35.67;22.85;;;;;;;;;;2085676;28;20171;-47
2021/09/06 05:07:00;;;;;;;39.33;24.92;;;;;;;;;;2079623;28;20164;-49
2021/09/06 05:08:01;;;;;;;39.50;26.27;;;;;;;;;;2064294;28;20198;-50
2021/09/06 05:09:01;;;;;;;41.00;25.25;;;;;;;;;;2082980;28;20210;-49
2021/09/06 05:10:03;;;;;;;40.00;27.10;;;;;;;;;;2077650;28;20546;-48
2021/09/06 05:11:04;;;;;;;36.97;23.80;;;;;;;;;;2076269;28;20183;-53
2021/09/06 05:12:07;;;;;;;37.28;23.92;;;;;;;;;;2081801;28;20234;-54
2021/09/06 05:13:11;;;;;;;36.22;23.40;;;;;;;;;;2094719;28;20224;-52
2021/09/06 05:14:13;;;;;;;34.97;21.35;;;;;;;;;;2092984;28;20258;-51
2021/09/06 05:15:14;;;;;;;34.72;24.30;;;;;;;;;;2078684;28;20176;-51
2021/09/06 05:16:14;;;;;;;39.83;25.65;;;;;;;;;;2088948;28;20762;-52
2021/09/06 05:17:14;;;;;;;37.85;24.10;;;;;;;;;;2084799;28;20176;-48
2021/09/06 05:18:15;;;;;;;33.80;24.88;;;;;;;;;;2078744;28;20295;-52
2021/09/06 05:19:15;;;;;;;36.60;24.17;;;;;;;;;;2080344;28;20276;-52
2021/09/06 05:20:16;;;;;;;39.17;26.58;;;;;;;;;;2067940;28;20217;-49
2021/09/06 05:21:17;;;;;;;35.40;24.05;;;;;;;;;;2078780;28;20169;-52
2021/09/06 05:22:18;;;;;;;39.72;27.60;;;;;;;;;;2080882;28;20708;-51
2021/09/06 05:23:18;;;;;;;40.47;26.42;;;;;;;;;;2079418;28;20243;-53
2021/09/06 05:24:19;;;;;;;40.40;28.25;;;;;;;;;;2079839;28;20262;-52
2021/09/06 05:25:19;;;;;;;38.35;25.40;;;;;;;;;;2077844;28;20173;-52
2021/09/06 05:26:20;;;;;;;34.35;24.98;;;;;;;;;;2074459;28;20197;-53
2021/09/06 05:27:22;;;;;;;39.53;26.27;;;;;;;;;;2080997;28;20176;-52
2021/09/06 05:28:22;;;;;;;32.70;22.90;;;;;;;;;;2088562;28;20176;-49
2021/09/06 05:29:23;;;;;;;36.25;23.58;;;;;;;;;;2078906;28;20283;-53
2021/09/06 05:30:23;;;;;;;33.50;24.48;;;;;;;;;;2066529;28;20208;-50
2021/09/06 05:31:24;;;;;;;40.60;24.23;;;;;;;;;;2069632;28;20173;-51
2021/09/06 05:32:25;;;;;;;34.63;23.85;;;;;;;;;;2078767;28;20191;-54
2021/09/06 05:33:25;;;;;;;34.22;24.90;;;;;;;;;;2076620;28;20187;-54
2021/09/06 05:34:26;;;;;;;35.35;24.05;;;;;;;;;;2066233;28;20174;-53
2021/09/06 05:35:27;;;;;;;33.55;22.88;;;;;;;;;;2063637;28;20190;-48
2021/09/06 05:36:27;;;;;;;31.00;25.35;;;;;;;;;;2074103;28;20181;-47
2021/09/06 05:37:31;;;;;;;37.53;26.90;;;;;;;;;;2080912;28;20219;-47
2021/09/06 05:38:32;;;;;;;33.47;24.60;;;;;;;;;;2069544;28;20197;-49
2021/09/06 05:40:08;;;;;;;35.00;25.35;;;;;;;;;;2076393;28;20543;-51
2021/09/06 05:41:10;;;;;;;36.45;24.42;;;;;;;;;;2072670;28;20682;-53
2021/09/06 05:42:10;;;;;;;33.47;24.10;;;;;;;;;;2070693;28;20177;-50
2021/09/06 05:43:12;;;;;;;32.20;22.60;;;;;;;;;;2086490;28;20278;-52
2021/09/06 05:44:12;;;;;;;35.08;23.85;;;;;;;;;;2092747;28;20168;-50
2021/09/06 05:45:16;;;;;;;35.15;25.27;;;;;;;;;;2085568;28;20176;-50
2021/09/06 05:46:17;;;;;;;35.55;25.27;;;;;;;;;;2083783;28;20240;-47
2021/09/06 05:47:18;;;;;;;32.45;24.98;;;;;;;;;;2068663;28;20185;-49
2021/09/06 05:48:20;;;;;;;37.92;24.55;;;;;;;;;;2071867;28;20188;-51
2021/09/06 05:49:20;;;;;;;35.88;24.50;;;;;;;;;;2089733;28;20199;-49
2021/09/06 05:50:25;;;;;;;33.88;25.33;;;;;;;;;;2085021;28;20691;-51
2021/09/06 05:51:44;;;;;;;34.33;24.88;;;;;;;;;;2081919;28;20184;-54
2021/09/06 05:52:53;;;;;;;33.80;24.30;;;;;;;;;;2089220;28;20171;-57
2021/09/06 05:53:53;;;;;;;35.60;24.52;;;;;;;;;;2083274;28;20540;-53
2021/09/06 05:54:54;;;;;;;32.95;23.48;;;;;;;;;;2075511;28;20175;-54
2021/09/06 05:55:54;;;;;;;35.17;23.83;;;;;;;;;;2086613;28;20664;-49
2021/09/06 05:56:54;;;;;;;32.30;23.45;;;;;;;;;;2083847;28;20873;-49
2021/09/06 05:57:59;;;;;;;30.27;22.02;;;;;;;;;;2069802;28;20208;-46
2021/09/06 05:58:59;;;;;;;32.38;23.75;;;;;;;;;;2062332;28;20621;-48
2021/09/06 06:00:02;;;;;;;35.03;24.35;;;;;;;;;;2079193;28;20160;-48
2021/09/06 06:01:13;;;;;;;33.25;23.58;;;;;;;;;;2079003;28;20184;-48
2021/09/06 06:02:13;;;;;;;30.85;23.38;;;;;;;;;;2078872;28;20574;-51
2021/09/06 06:03:14;;;;;;;29.15;22.92;;;;;;;;;;2080581;28;20208;-50